Date,TemperatureHighF,TemperatureAvgF,TemperatureLowF,DewpointHighF,DewpointAvgF,DewpointLowF,HumidityHigh,HumidityAvg,HumidityLow,PressureMaxIn,PressureMinIn,WindSpeedMaxMPH,WindSpeedAvgMPH,GustSpeedMaxMPH,PrecipitationSumIn
2013-1-3,47,47,47,41,41,41,82,82,82,29.69,29.69,4,3,4,0.00
2013-1-4,47,47,47,41,41,41,82,82,82,29.69,29.69,3,3,4,0.00
2013-1-5,47,47,47,41,41,41,82,82,82,29.69,29.69,3,3,4,0.00
2013-1-6,47,47,47,41,41,41,82,82,82,29.69,29.69,3,3,4,0.00
2013-1-7,47,47,47,41,41,41,82,82,82,29.69,29.69,3,3,4,0.00
2013-1-8,47,47,47,41,41,41,82,82,82,29.69,29.69,3,3,4,0.00
2013-1-9,47,47,47,41,41,41,82,82,82,29.69,29.69,3,3,4,0.00
2013-1-12,47,47,47,41,41,41,82,82,82,29.69,29.69,4,4,0,0.00
2013-1-14,47,47,47,41,41,41,82,82,82,29.69,29.69,4,4,4,0.00
2013-1-15,47,47,47,41,41,41,82,82,82,29.69,29.69,4,4,4,0.00
2013-2-1,47,46,33,41,41,4,82,81,24,30.77,29.69,10,3,4,0.00
2013-2-2,57,46,36,44,41,23,98,82,37,30.67,29.60,8,3,4,0.09
2013-2-3,59,42,29,44,34,27,98,76,35,29.76,29.69,11,3,0,0.02
2013-3-1,45,38,36,31,24,-100,71,60,48,29.95,29.88,8,-25,0,0.00
2013-3-2,39,36,33,29,26,23,79,69,55,30.02,29.89,9,4,0,0.00
2013-3-3,50,36,28,25,20,10,85,57,20,30.06,29.96,10,3,0,0.00
2013-3-4,68,48,25,46,29,20,86,55,22,30.05,29.81,15,4,0,0.00
2013-3-5,69,51,33,59,44,29,90,77,65,29.94,29.60,18,6,0,0.03
2013-3-6,47,38,29,28,25,20,86,59,46,30.14,29.94,12,5,0,0.00
2013-3-7,62,42,27,34,28,24,88,62,25,30.20,30.09,7,2,0,0.00
2013-3-8,74,49,31,34,24,-5,89,50,5,30.21,30.07,6,1,0,0.00
2013-3-9,74,58,40,38,33,27,75,42,19,30.12,29.93,12,3,0,0.00
2013-3-10,77,64,52,52,44,32,61,47,35,29.95,29.77,15,7,0,0.00
2013-3-11,63,54,37,55,47,36,98,77,58,29.82,29.68,14,6,0,0.39
2013-3-12,62,40,32,37,32,28,90,77,30,30.03,29.82,6,2,0,0.00
2013-3-13,60,43,29,34,24,12,91,57,16,30.22,30.03,14,3,0,0.00
2013-3-14,65,45,29,32,19,5,75,42,12,30.30,30.10,7,2,0,0.00
2013-3-15,78,55,32,47,38,29,89,59,29,30.11,29.86,14,4,0,0.00
2013-3-16,77,58,46,47,44,40,82,61,30,29.91,29.75,14,4,0,0.00
2013-3-17,74,61,48,58,53,46,98,75,51,29.87,29.72,11,4,0,0.00
2013-3-18,80,62,54,64,57,53,98,84,53,29.75,29.59,15,5,0,0.09
2013-3-19,68,56,45,54,34,11,87,51,11,29.96,29.77,8,4,0,0.02
2013-3-20,64,53,43,36,22,4,69,33,14,30.02,29.83,10,3,0,0.00
2013-3-21,55,42,31,29,20,4,85,46,14,29.92,29.78,7,2,0,0.00
2013-3-22,50,45,41,44,37,22,90,76,40,29.88,29.77,9,3,0,0.11
2013-3-23,65,55,48,57,51,44,98,87,76,29.81,29.46,11,3,0,1.00
2013-3-24,57,52,42,55,50,28,98,92,56,29.71,29.39,8,3,0,0.54
2013-3-25,51,41,33,29,24,20,64,51,33,30.04,29.71,14,6,0,0.00
2013-3-26,44,37,28,26,24,22,77,58,45,30.22,30.02,10,4,0,0.00
2013-3-27,60,42,23,32,26,19,87,57,23,30.28,30.13,9,2,0,0.00
2013-3-28,70,50,30,41,30,22,90,55,16,30.23,30.10,8,1,0,0.00
2013-3-29,76,57,36,48,37,31,91,55,22,30.19,29.99,12,2,0,0.00
2013-3-30,77,60,45,59,52,42,98,75,43,30.03,29.84,9,2,0,0.20
2013-3-31,66,59,54,60,57,53,98,94,80,29.85,29.68,7,2,0,0.31
2013-4-1,78,64,56,59,51,32,98,72,21,29.90,29.72,8,2,0,0.00
2013-4-2,72,57,46,45,40,32,87,55,34,30.03,29.90,8,3,0,0.00
2013-4-3,57,50,48,48,36,28,98,60,42,30.00,29.89,9,4,0,0.22
2013-4-4,51,49,46,50,48,46,98,95,88,29.89,29.75,6,3,0,0.64
2013-4-5,68,53,44,49,44,39,98,75,35,29.95,29.80,11,3,0,0.06
2013-4-6,79,59,37,50,41,35,98,60,21,30.03,29.88,9,2,0,0.00
2013-4-7,81,63,45,54,49,43,98,64,35,30.03,29.85,13,3,0,0.00
2013-4-8,85,70,57,62,57,52,90,64,41,29.93,29.83,11,4,0,0.00
2013-4-9,90,74,59,62,58,55,88,60,36,29.97,29.84,11,4,0,0.00
2013-4-10,89,74,55,64,58,53,98,61,32,29.91,29.71,13,4,0,0.00
2013-4-11,81,68,60,68,62,57,98,80,64,29.76,29.41,18,4,0,1.35
2013-4-12,72,57,46,57,46,39,93,70,31,29.82,29.59,10,4,0,0.00
2013-4-13,83,61,42,52,42,28,98,61,14,29.93,29.79,6,1,0,0.00
2013-4-14,61,56,49,56,52,45,98,87,76,29.90,29.62,9,2,0,0.94
2013-4-15,81,67,57,65,60,56,98,81,54,29.90,29.73,10,2,0,0.00
2013-4-16,91,75,64,71,66,61,90,75,47,30.00,29.89,7,2,0,0.00
2013-4-17,90,77,66,71,67,64,93,73,49,30.03,29.85,8,2,0,0.00
2013-4-18,85,75,63,66,63,60,89,69,48,29.89,29.62,12,6,0,0.00
2013-4-19,73,53,40,67,47,36,92,80,55,30.00,29.58,17,5,0,1.03
2013-4-20,69,51,34,42,34,28,98,60,22,30.12,30.00,12,2,0,0.00
2013-4-21,79,59,40,45,39,32,91,55,18,30.15,29.99,7,2,0,0.00
2013-4-22,82,64,48,55,49,42,89,62,36,30.09,29.91,9,2,0,0.00
2013-4-23,82,66,52,58,52,45,92,65,41,30.02,29.86,9,3,0,0.00
2013-4-24,72,60,53,65,56,48,98,87,76,30.04,29.87,8,3,0,0.02
2013-4-25,57,51,46,48,43,40,83,76,59,30.17,30.04,9,4,0,0.00
2013-7-8,78,39,78,78,-11,-100,98,49,98,29.91,29.91,3,-498,0,0.19
2013-7-9,94,82,75,80,72,-100,98,76,55,29.98,29.84,11,-16,0,0.52
2013-7-10,88,79,71,87,76,71,98,91,70,29.91,29.78,9,3,0,0.72
2013-7-11,87,77,71,78,74,71,98,91,62,29.85,29.75,8,3,0,2.13
2013-7-12,93,80,72,78,73,70,98,81,52,29.85,29.75,9,2,0,0.00
2013-7-13,93,78,67,77,72,67,98,84,54,29.94,29.83,7,1,0,0.00
2013-7-14,93,80,70,77,72,70,98,82,52,30.02,29.89,10,3,0,0.05
2013-7-15,94,80,73,77,73,70,98,82,47,30.13,30.00,9,3,0,0.24
2013-7-16,97,82,72,79,74,70,98,79,43,30.16,30.08,8,2,0,0.00
2013-7-17,100,84,70,82,73,67,98,74,41,30.16,29.99,6,1,0,0.00
2013-7-18,99,82,70,80,73,69,98,78,40,30.07,29.88,11,2,0,0.36
2013-7-19,98,83,70,80,73,68,98,76,41,29.97,29.80,7,2,0,0.00
2013-7-20,94,80,73,79,75,72,98,86,55,29.91,29.78,9,2,0,0.00
2013-7-21,79,74,72,78,73,72,98,98,98,29.90,29.84,6,2,0,0.00
2013-7-22,86,76,70,79,71,-100,98,90,73,29.89,29.76,11,-13,0,0.64
2013-7-23,87,74,70,79,73,69,98,95,74,29.89,29.75,11,3,0,0.67
2013-7-24,89,76,69,80,74,68,98,94,70,29.81,29.69,6,2,0,0.00
2013-7-25,89,78,69,78,71,66,98,80,50,29.92,29.75,8,2,0,0.00
2013-7-26,93,78,64,76,69,63,98,78,44,29.94,29.86,9,2,0,0.00
2013-7-27,93,77,69,79,72,68,98,87,49,29.89,29.78,5,1,0,0.00
2013-7-28,97,81,69,78,72,69,98,79,46,29.94,29.83,5,1,0,0.00
2013-7-29,100,81,69,75,70,65,98,74,32,30.05,29.93,5,1,0,0.00
2013-7-30,98,81,65,78,71,64,98,76,44,30.08,29.95,10,1,0,0.00
2013-7-31,95,81,75,82,77,74,98,89,60,29.98,29.83,9,2,0,0.00
2013-8-1,90,79,70,80,73,70,98,84,52,29.92,29.81,8,3,0,2.19
2013-8-2,93,81,69,76,71,66,98,75,44,29.93,29.85,6,1,0,0.00
2013-8-3,92,79,68,78,73,67,98,86,60,29.97,29.89,10,2,0,0.06
2013-8-4,94,81,73,78,74,72,98,82,53,29.96,29.86,6,2,0,0.02
2013-8-5,93,80,71,78,72,69,98,80,50,29.95,29.85,5,1,0,0.00
2013-8-6,95,79,73,79,75,69,98,89,55,29.90,29.83,6,2,0,0.03
2013-8-7,99,82,72,80,75,72,98,83,47,29.91,29.81,8,2,0,0.52
2013-8-8,98,82,71,81,76,71,98,83,51,29.91,29.82,9,2,0,0.00
2013-8-9,98,81,73,82,76,72,98,88,51,29.98,29.88,9,3,0,0.12
2013-8-10,98,82,72,80,75,71,98,83,46,30.03,29.93,7,2,0,0.02
2013-8-11,96,79,70,81,75,70,98,89,53,30.06,29.96,10,2,0,2.56
2013-8-12,94,80,73,86,78,73,98,95,64,30.04,29.88,11,2,0,0.57
2013-8-13,90,77,71,86,76,71,98,97,85,29.93,29.79,9,3,0,1.96
2013-8-14,86,76,71,83,75,70,98,98,85,29.89,29.81,8,1,0,1.04
2013-8-15,86,73,66,84,72,66,98,97,81,29.93,29.85,9,2,0,0.00
2013-8-16,77,71,67,77,70,66,98,98,95,29.98,29.88,7,2,0,0.00
2013-8-17,76,70,67,76,69,66,98,98,98,29.99,29.91,5,2,0,0.00
2013-8-18,78,72,68,78,71,67,98,98,98,30.04,29.94,10,2,0,0.92
2013-8-19,91,77,70,86,76,70,98,95,69,30.00,29.88,12,2,0,0.79
2013-8-20,92,80,72,90,79,72,98,95,74,30.03,29.93,8,2,0,0.00
2013-8-21,95,80,72,84,76,71,98,90,58,30.08,29.95,10,2,0,0.05
2013-8-22,96,82,71,86,77,70,98,87,50,30.05,29.90,6,1,0,0.01
2013-8-23,96,80,69,88,76,69,98,90,52,29.98,29.86,6,1,0,0.00
2013-8-24,99,80,71,87,77,70,98,90,53,30.09,29.94,7,1,0,0.16
2013-8-25,93,80,69,84,75,68,98,87,53,30.19,30.08,8,2,0,0.00
2013-8-26,96,76,62,75,67,62,98,78,36,30.20,30.05,5,1,0,0.00
2013-8-27,96,76,60,81,68,60,98,81,37,30.07,29.95,6,1,0,0.00
2013-8-28,93,78,64,84,73,64,98,87,52,30.00,29.90,5,1,0,0.00
2013-8-29,95,81,69,87,76,68,98,88,52,29.97,29.86,9,2,0,0.00
2013-8-30,97,81,71,88,78,70,98,92,60,29.91,29.81,7,1,0,0.02
2013-8-31,99,81,71,91,78,71,98,92,57,29.87,29.75,6,2,0,1.54
2013-9-1,96,81,71,90,78,70,98,92,59,29.84,29.72,11,2,0,0.00
2013-9-2,95,80,73,88,78,72,98,93,58,29.92,29.75,5,2,0,0.00
2013-9-3,95,81,70,90,80,70,98,97,63,29.89,29.77,6,2,0,0.00
2013-9-4,95,80,68,87,71,63,98,80,39,29.99,29.87,8,1,0,0.00
2013-9-5,98,78,65,86,71,64,98,81,40,30.04,29.94,7,1,0,0.00
2013-9-6,96,79,64,83,71,64,98,82,42,30.03,29.90,6,1,0,0.00
2013-9-7,99,82,69,88,73,66,98,80,35,30.01,29.87,7,1,0,0.00
2013-9-8,99,80,66,87,72,65,98,82,39,29.93,29.82,6,1,0,0.00
2013-9-9,104,80,68,89,74,68,98,85,37,29.98,29.87,6,1,0,0.67
2013-9-10,99,82,72,86,75,69,98,83,44,30.07,29.97,8,1,0,0.01
2013-9-11,100,81,69,80,67,40,98,66,35,30.10,29.97,6,1,0,0.00
2013-9-12,98,80,66,79,61,32,98,57,26,29.99,29.81,5,1,0,0.00
2013-9-13,92,78,68,78,62,23,98,63,17,29.83,29.70,6,1,0,0.00
2013-9-14,90,72,56,64,57,48,98,67,26,29.94,29.82,6,1,0,0.00
2013-9-15,93,73,54,70,56,29,98,58,34,30.01,29.94,12,2,0,0.00
2013-9-16,99,78,64,76,52,-37,98,48,9,30.05,29.93,7,1,0,0.00
2013-9-17,100,78,61,73,13,-40,62,23,1,30.05,29.92,9,2,0,0.00
2013-9-18,94,77,67,72,4,-37,63,19,1,30.08,29.96,10,2,0,0.00
2013-9-19,96,78,65,70,15,-38,63,23,11,30.05,29.92,9,1,0,0.00
2013-9-20,95,79,64,72,23,-39,64,27,1,29.97,29.74,9,3,0,0.00
2013-9-21,77,73,66,-31,-33,-37,0,0,100,29.76,29.65,11,4,0,0.47
2013-9-22,87,70,57,65,6,-42,66,23,2,29.76,29.68,5,1,0,0.01
2013-9-23,93,74,58,71,11,-42,65,24,1,29.85,29.74,9,2,0,0.00
2013-9-24,77,72,69,16,-32,-35,10,1,1,29.85,29.66,10,3,0,0.23
2013-9-25,88,75,69,73,-4,-35,66,16,1,29.75,29.64,6,1,0,0.20
2013-9-26,92,75,65,72,6,-38,65,22,1,29.89,29.73,6,1,0,0.00
2013-9-27,91,73,59,67,25,-42,65,28,1,30.01,29.88,6,1,0,0.00
2013-9-28,88,70,56,63,15,-43,66,27,1,30.08,29.95,9,2,0,0.00
2013-9-29,85,68,55,65,13,-44,68,28,1,30.02,29.89,8,1,0,0.00
2013-9-30,86,70,62,68,21,-40,67,26,1,29.96,29.84,5,1,0,0.14
2013-10-1,90,75,64,71,38,-36,70,35,2,30.01,29.90,7,1,0,0.00
2013-10-2,93,75,64,69,48,-15,74,42,3,30.04,29.92,6,1,0,0.00
2013-10-3,86,74,65,71,48,-6,77,47,5,30.02,29.91,7,1,0,0.00
2013-10-4,96,77,63,73,55,16,82,50,14,30.02,29.91,7,1,0,0.00
2013-10-5,95,79,67,72,60,32,87,55,25,29.99,29.83,9,2,0,0.00
2013-10-6,84,73,61,73,58,37,98,62,31,29.87,29.72,14,2,0,1.28
2013-10-7,76,63,53,62,56,49,98,80,47,29.92,29.79,11,2,0,0.01
2013-10-8,83,67,51,72,62,50,98,84,57,29.97,29.87,8,2,0,0.00
2013-10-9,86,71,62,71,64,57,98,81,51,30.07,29.96,11,3,0,0.00
2013-10-10,85,70,60,74,66,60,98,88,54,30.04,29.90,7,1,0,0.00
2013-10-11,85,69,57,74,64,56,98,85,44,29.98,29.87,8,1,0,0.00
2013-10-12,87,70,57,73,64,56,98,83,44,30.00,29.90,6,1,0,0.00
2013-10-13,91,73,61,72,64,60,98,79,40,30.09,29.99,8,1,0,0.00
2013-10-14,86,70,59,72,65,58,98,86,56,30.10,29.95,6,1,0,0.00
2013-10-15,80,68,59,71,65,58,98,89,61,30.02,29.89,9,1,0,0.00
2013-10-16,79,70,61,75,68,60,98,95,73,29.94,29.81,9,2,0,0.03
2013-10-17,72,69,63,72,68,63,98,98,98,29.89,29.79,9,2,0,0.77
2013-10-18,77,64,56,65,58,53,98,83,44,29.96,29.82,6,1,0,0.03
2013-10-19,70,62,54,66,60,53,97,95,76,29.91,29.83,7,2,0,0.03
2013-10-20,75,58,45,55,48,37,97,78,29,29.99,29.88,7,1,0,0.00
2013-10-21,76,58,43,61,51,42,97,82,39,30.02,29.88,5,1,0,0.00
2013-10-22,75,64,55,66,56,42,97,80,33,29.91,29.76,9,2,0,0.00
2013-10-23,66,55,42,55,46,38,97,77,38,30.03,29.81,12,4,0,0.00
2013-10-24,72,55,39,57,46,38,97,78,40,30.15,30.01,10,2,0,0.00
2013-10-25,63,48,35,49,37,25,97,71,25,30.36,30.16,8,2,0,0.00
2013-10-26,69,48,32,48,38,31,97,73,27,30.25,30.06,8,1,0,0.00
2013-10-27,74,58,44,64,52,43,97,83,45,30.07,29.99,10,2,0,0.01
2013-10-28,75,63,58,72,62,57,97,97,82,30.13,30.02,8,1,0,0.11
2013-10-29,86,67,58,73,62,57,97,85,42,30.19,30.07,8,1,0,0.00
2013-10-30,82,67,58,71,61,57,97,85,51,30.17,29.99,10,2,0,0.00
2013-10-31,76,69,60,76,68,59,97,97,97,30.00,29.67,18,7,0,0.35
2013-11-1,74,67,51,72,62,50,97,85,51,29.77,29.63,13,5,0,0.28
2013-11-2,70,57,48,58,46,36,97,72,32,30.03,29.76,11,3,0,0.00
2013-11-3,73,53,41,54,44,39,97,78,30,30.18,30.02,6,1,0,0.00
2013-11-4,73,56,41,56,46,40,97,74,37,30.27,30.16,12,2,0,0.00
2013-11-5,74,58,49,55,46,39,97,66,42,30.29,30.14,13,2,0,0.00
2013-11-6,74,64,51,71,62,49,97,96,79,30.14,29.97,10,3,0,0.00
2013-11-7,68,54,37,67,50,37,97,87,48,30.21,29.96,12,3,0,0.48
2013-11-8,67,52,37,44,38,32,97,67,28,30.29,30.14,7,1,0,0.00
2013-11-9,67,53,40,54,44,37,97,78,35,30.23,30.11,7,1,0,0.00
2013-11-10,63,53,52,58,52,48,97,95,57,30.21,30.13,3,0,0,0.00
2013-11-19,66,51,41,36,25,-100,81,43,18,30.09,29.97,9,-29,0,0.00
2013-11-20,72,53,37,50,42,34,97,68,38,30.15,30.01,11,3,0,0.00
2013-11-21,69,60,53,65,57,46,97,90,67,30.22,30.11,8,3,0,0.00
2013-11-22,68,63,56,68,62,55,97,97,97,30.19,30.07,7,2,0,0.02
2013-11-23,65,52,39,64,48,27,97,86,52,30.27,30.07,10,4,0,0.02
2013-11-24,52,38,28,26,17,0,81,47,13,30.43,30.24,12,4,0,0.00
2013-11-25,50,41,29,44,28,13,97,62,32,30.31,29.92,10,3,0,0.29
2013-11-26,53,47,41,52,46,41,97,97,97,29.91,29.62,11,4,0,2.31
2013-11-27,43,36,23,42,26,17,97,71,42,30.27,29.76,19,5,0,0.21
2013-11-28,57,32,20,28,20,11,97,70,18,30.40,30.26,5,1,0,0.00
2013-11-29,65,40,24,35,22,-4,97,64,6,30.47,30.33,6,1,0,0.00
2013-11-30,69,44,28,41,30,15,97,68,14,30.43,30.19,10,1,0,0.00
2013-12-1,63,49,35,49,42,34,97,82,47,30.19,29.91,7,1,0,0.00
2013-12-2,62,57,49,61,56,48,97,97,97,29.89,29.66,8,1,0,0.53
2013-12-3,68,63,59,67,62,58,97,97,97,29.73,29.65,5,1,0,0.04
2013-12-4,76,71,68,75,70,67,97,97,97,29.86,29.72,14,6,0,0.00
2013-12-5,76,73,71,75,72,70,97,97,97,29.93,29.80,14,6,0,0.28
2013-12-6,79,65,43,78,64,39,97,96,61,30.09,29.79,18,8,0,0.90
2013-12-7,43,40,38,42,39,37,97,97,97,30.29,30.09,10,4,0,0.00
2013-12-8,68,54,42,67,53,26,97,96,43,30.13,29.94,7,2,0,4.80
2013-12-9,69,56,49,68,54,-48,97,96,91,30.07,29.89,8,3,0,1.14
2013-12-10,49,41,30,48,38,29,97,93,66,30.27,29.90,17,4,0,0.34
2013-12-11,64,42,29,43,34,27,97,78,26,30.34,30.24,6,1,0,0.00
2013-12-12,50,36,27,34,24,9,97,69,20,30.45,30.28,11,2,0,0.00
2013-12-13,51,39,26,42,30,24,97,74,36,30.28,29.98,7,1,0,0.00
2013-12-14,63,54,44,62,52,38,97,95,75,29.98,29.71,11,4,0,1.04
2013-12-15,43,38,30,42,37,30,97,97,97,30.18,29.89,11,4,0,0.00
2013-12-16,58,41,29,46,34,28,97,83,34,30.23,30.11,10,2,0,0.00
2013-12-17,63,47,30,50,40,27,97,80,42,30.18,30.05,13,3,0,0.00
2013-12-18,64,44,31,48,32,18,97,73,18,30.30,30.17,7,1,0,0.00
2013-12-19,68,47,29,45,36,29,97,71,27,30.22,30.03,12,2,0,0.00
2013-12-20,71,59,43,69,56,42,97,91,72,30.07,29.91,14,4,0,0.00
2013-12-21,76,70,61,75,69,60,97,97,97,29.91,29.67,19,10,0,0.11
2013-12-22,88,75,65,84,69,-26,97,91,1,30.00,29.69,22,4,0,3.89
2013-12-23,72,50,32,71,48,26,97,94,24,30.31,29.96,10,5,0,0.21
2013-12-24,45,33,24,38,26,-2,97,82,16,30.42,30.29,9,3,0,0.00
2013-12-25,54,35,20,42,26,-1,97,80,12,30.35,30.21,6,1,0,0.00
2013-12-26,61,40,28,56,31,-12,97,81,5,30.30,30.19,6,1,0,0.00
2013-12-27,62,40,26,56,32,-2,97,82,8,30.36,30.24,6,1,0,0.00
2013-12-28,44,42,38,44,42,37,97,97,97,30.27,29.81,8,2,0,2.17
2013-12-29,55,46,39,54,45,38,97,97,97,30.00,29.80,8,2,0,0.03
2013-12-30,54,44,36,53,43,36,97,97,97,30.18,29.99,6,2,0,0.00
2013-12-31,49,40,34,45,38,34,97,94,67,30.34,30.18,8,2,0,0.00
2014-1-1,55,43,33,53,42,32,97,97,87,30.23,29.97,7,2,0,0.00
2014-1-2,53,42,27,53,38,-8,97,88,21,30.21,29.79,19,6,0,0.28